createdAt,value
2023-03-23T15:57:53.612Z,97987.34
2023-03-23T15:59:55.223Z,97987.34
2023-03-23T16:01:57.653Z,97987.34
2023-03-23T16:04:23.554Z,97991.22
2023-03-23T16:06:27.597Z,97990.25
2023-03-23T16:08:29.463Z,97990.25
2023-03-23T16:10:31.180Z,97987.50
2023-03-23T16:12:32.961Z,97984.91
2023-03-23T16:14:34.493Z,97983.59
2023-03-23T16:16:47.922Z,97985.56
2023-03-23T16:18:51.344Z,97988.31
2023-03-23T16:20:52.942Z,97976.44
2023-03-23T16:22:54.846Z,97976.44
2023-03-23T16:24:56.277Z,97986.69
2023-03-23T16:26:57.778Z,97978.72
2023-03-23T16:29:09.924Z,97996.75
2023-03-23T16:31:16.360Z,97988.78
2023-03-23T16:33:21.288Z,97988.63
2023-03-23T16:35:22.763Z,97985.69
2023-03-23T16:37:24.612Z,97982.09
2023-03-23T16:39:29.130Z,97982.44
2023-03-23T16:41:31.415Z,97981.13
2023-03-23T16:43:32.985Z,97978.69
2023-03-23T16:45:35.375Z,97974.59
2023-03-23T16:47:37.468Z,97967.44
2023-03-23T16:49:39.271Z,97966.13
2023-03-23T16:51:42.892Z,97970.00
2023-03-23T16:53:44.525Z,97971.47
2023-03-23T16:55:48.292Z,97978.16
2023-03-23T16:57:49.931Z,97984.78
2023-03-23T16:59:51.923Z,97977.16
2023-03-23T17:01:53.522Z,97980.53
2023-03-23T17:03:55.805Z,97975.69
2023-03-23T17:06:00.184Z,97976.81
2023-03-23T17:08:02.150Z,97978.25
2023-03-23T17:10:04.236Z,97975.84
2023-03-23T17:12:06.241Z,97981.34
2023-03-23T17:14:07.709Z,97983.59
2023-03-23T17:16:09.314Z,97979.22
2023-03-23T17:18:11.202Z,97984.28
2023-03-23T17:20:13.623Z,97981.81
2023-03-23T17:22:15.505Z,97980.50
2023-03-23T17:24:17.950Z,97973.38
2023-03-23T17:26:19.931Z,97973.66
2023-03-23T17:28:21.635Z,97977.59
2023-03-23T17:30:26.377Z,97981.78
2023-03-23T17:32:28.056Z,97971.38
2023-03-23T17:34:29.687Z,97979.97
2023-03-23T17:36:31.379Z,97969.59
2023-03-23T17:38:32.917Z,97978.16
2023-03-23T17:40:34.720Z,97982.06
2023-03-23T17:42:37.674Z,97967.75
2023-03-23T17:44:39.778Z,97966.78
2023-03-23T17:46:41.370Z,97975.06
2023-03-23T17:48:42.869Z,97972.63
2023-03-23T17:50:54.999Z,97969.34
2023-03-23T17:52:57.143Z,97966.09
2023-03-23T17:54:58.884Z,97974.72
2023-03-23T17:57:06.412Z,97971.47
2023-03-23T17:59:08.193Z,97968.19
2023-03-23T18:01:09.869Z,97962.16
2023-03-23T18:03:11.719Z,97960.56
2023-03-23T18:05:14.110Z,97955.34
2023-03-23T18:07:15.722Z,97958.41
2023-03-23T18:09:17.245Z,97960.69
2023-03-23T18:11:19.048Z,97967.34
2023-03-23T18:13:21.848Z,97966.84
2023-03-23T18:15:31.696Z,97966.34
2023-03-23T18:17:36.141Z,97968.59
2023-03-23T18:19:37.821Z,97969.75
2023-03-23T18:21:39.395Z,97972.00
2023-03-23T18:23:49.321Z,97972.63
2023-03-23T18:25:55.257Z,97965.78
2023-03-23T18:28:06.861Z,97963.00
2023-03-23T18:30:09.778Z,97962.81
2023-03-23T18:32:11.789Z,97966.19
2023-03-23T18:34:13.582Z,97959.38
2023-03-23T18:36:18.119Z,97962.47
2023-03-23T18:38:19.835Z,97957.56
2023-03-23T18:40:24.160Z,97957.41
2023-03-23T18:42:29.375Z,97965.97
2023-03-23T18:44:31.218Z,97962.72
2023-03-23T18:46:33.467Z,97965.81
2023-03-23T18:48:36.111Z,97972.78
2023-03-23T18:50:37.872Z,97971.94
2023-03-23T18:52:39.406Z,97968.38
2023-03-23T18:54:46.789Z,97975.81
2023-03-23T18:56:50.425Z,97974.22
2023-03-23T18:58:53.396Z,97973.38
2023-03-23T19:01:42.006Z,97969.81
2023-03-23T19:03:45.886Z,97970.13
2023-03-23T19:05:56.075Z,97964.63
2023-03-23T19:07:58.042Z,97967.38
2023-03-23T19:09:59.662Z,97972.91
2023-03-23T19:12:01.239Z,97974.50
2023-03-23T19:14:03.927Z,97974.50
2023-03-23T19:16:14.437Z,97970.13
2023-03-23T19:18:16.331Z,97956.63
2023-03-23T19:20:30.231Z,97959.09
2023-03-23T19:22:40.495Z,97962.97
2023-03-23T19:24:42.338Z,97948.38
2023-03-23T19:26:46.482Z,97965.25
2023-03-23T19:29:23.378Z,97961.66
2023-03-23T19:31:11.193Z,97951.59
2023-03-23T19:33:13.595Z,97955.16
2023-03-23T19:35:16.679Z,97957.09
2023-03-23T19:37:20.386Z,97954.63
2023-03-23T19:39:29.226Z,97950.25
2023-03-23T19:41:31.710Z,97954.97
2023-03-23T19:43:33.733Z,97947.31
2023-03-23T19:45:36.333Z,97940.47
2023-03-23T19:47:40.476Z,97956.22
2023-03-23T19:49:42.023Z,97954.06
2023-03-23T19:51:43.644Z,97951.63
2023-03-23T19:53:46.087Z,97949.50
2023-03-23T19:55:51.213Z,97951.75
2023-03-23T19:57:53.160Z,97954.84
2023-03-23T19:59:54.891Z,97949.94
2023-03-23T20:01:58.924Z,97945.56
2023-03-23T20:04:04.719Z,97944.22
2023-03-23T20:06:12.264Z,97949.25
2023-03-23T20:08:14.898Z,97939.66
2023-03-23T20:10:19.652Z,97935.91
2023-03-23T20:12:21.902Z,97937.84
2023-03-23T20:14:23.681Z,97944.81
2023-03-23T20:16:25.626Z,97936.03
2023-03-23T20:18:29.177Z,97941.84
2023-03-23T20:20:31.982Z,97937.75
2023-03-23T20:22:34.501Z,97931.25
2023-03-23T20:24:38.118Z,97940.34
2023-03-23T20:26:42.436Z,97933.53
2023-03-23T20:28:47.707Z,97933.00
2023-03-23T20:31:23.247Z,97933.63
2023-03-23T20:33:26.526Z,97934.22
2023-03-23T20:35:29.396Z,97935.66
2023-03-23T20:37:32.053Z,97932.41
2023-03-23T20:39:34.121Z,97934.34
2023-03-23T20:41:36.777Z,97933.84
2023-03-23T20:43:43.515Z,97931.38
2023-03-23T20:45:45.751Z,97928.13
2023-03-23T20:47:54.049Z,97930.38
2023-03-23T20:49:56.101Z,97930.66
2023-03-23T20:51:58.580Z,97930.19
2023-03-23T20:54:02.038Z,97923.06
2023-03-23T20:56:08.579Z,97923.66
2023-03-23T20:58:12.246Z,97920.41
2023-03-23T21:00:16.195Z,97928.97
2023-03-23T21:02:19.639Z,97930.13
2023-03-23T21:04:27.744Z,97931.22
2023-03-23T21:06:31.013Z,97927.16
2023-03-23T21:08:34.877Z,97926.31
2023-03-23T21:10:37.717Z,97922.75
2023-03-23T21:12:39.288Z,97925.63
2023-03-23T21:14:41.347Z,97919.00
2023-03-23T21:16:43.685Z,97920.63
2023-03-23T21:18:45.991Z,97919.81
2023-03-23T21:20:50.556Z,97920.63
2023-03-23T21:22:52.388Z,97917.88
2023-03-23T21:24:53.981Z,97920.63
2023-03-23T21:26:58.111Z,97912.38
2023-03-23T21:29:00.454Z,97911.84
2023-03-23T21:31:04.946Z,97909.09
2023-03-23T21:33:09.140Z,97904.72
2023-03-23T21:35:11.172Z,97906.34
2023-03-23T21:37:16.223Z,97901.16
2023-03-23T21:39:19.344Z,97898.72
2023-03-23T21:41:22.249Z,97899.84
2023-03-23T21:43:27.411Z,97896.25
2023-03-23T21:45:29.394Z,97896.56
2023-03-23T21:47:34.053Z,97900.94
2023-03-23T21:49:35.775Z,97891.06
2023-03-23T21:51:43.300Z,97899.00
2023-03-23T21:53:46.970Z,97902.59
2023-03-23T21:55:53.003Z,97890.75
2023-03-23T21:57:54.444Z,97894.00
2023-03-23T21:59:56.410Z,97888.00
2023-03-23T22:01:59.872Z,97888.50
2023-03-23T22:04:04.826Z,97881.66
2023-03-23T22:06:13.215Z,97876.16
2023-03-23T22:08:14.747Z,97870.97
2023-03-23T22:10:19.059Z,97874.53
2023-03-23T22:12:21.739Z,97872.28
2023-03-23T22:14:23.519Z,97872.28
2023-03-23T22:16:26.344Z,97866.28
2023-03-23T22:18:28.652Z,97865.97
2023-03-23T22:20:30.909Z,97857.41
2023-03-23T22:22:32.750Z,97855.78
2023-03-23T22:24:34.390Z,97853.00
2023-03-23T22:26:36.391Z,97850.25
2023-03-23T22:28:39.170Z,97849.44
2023-03-23T22:30:40.689Z,97852.53
2023-03-23T22:32:42.544Z,97847.00
2023-03-23T22:34:44.305Z,97844.25
2023-03-23T22:36:46.159Z,97850.06
2023-03-23T22:38:48.245Z,97843.75
2023-03-23T22:40:57.956Z,97841.78
2023-03-23T22:42:59.420Z,97832.75
2023-03-23T22:45:01.032Z,97836.00
2023-03-23T22:47:02.673Z,97837.59
2023-03-23T22:49:04.323Z,97823.84
2023-03-23T22:51:06.115Z,97830.47
2023-03-23T22:53:15.210Z,97822.72
2023-03-23T22:55:16.848Z,97815.91
2023-03-23T22:57:18.672Z,97813.97
2023-03-23T22:59:20.224Z,97817.22
2023-03-23T23:01:23.150Z,97821.72
2023-03-23T23:03:25.711Z,97810.38
2023-03-23T23:05:27.157Z,97808.25
2023-03-23T23:07:28.789Z,97808.25
2023-03-23T23:09:30.265Z,97807.44
2023-03-23T23:11:31.850Z,97805.00
2023-03-23T23:13:33.703Z,97805.81
2023-03-23T23:15:36.047Z,97809.69
2023-03-23T23:17:38.691Z,97803.06
2023-03-23T23:19:40.268Z,97800.31
2023-03-23T23:21:41.770Z,97798.38
2023-03-23T23:23:43.370Z,97803.06
2023-03-23T23:25:51.637Z,97800.31
2023-03-23T23:27:53.246Z,97796.25
2023-03-23T23:29:54.831Z,97797.34
2023-03-23T23:31:56.418Z,97791.56
2023-03-23T23:34:02.177Z,97789.59
2023-03-23T23:36:04.100Z,97787.16
2023-03-23T23:38:06.993Z,97780.34
2023-03-23T23:40:09.520Z,97787.78
2023-03-23T23:42:11.564Z,97778.41
2023-03-23T23:44:13.332Z,97776.75
2023-03-23T23:46:15.067Z,97776.28
2023-03-23T23:48:16.846Z,97775.44
2023-03-23T23:50:18.998Z,97775.78
2023-03-23T23:52:21.014Z,97773.84
2023-03-23T23:54:22.662Z,97770.56
2023-03-23T23:56:25.322Z,97769.44
2023-03-23T23:58:26.798Z,97774.13
